Time;durP1;ratioP1;P1;durP2;ratioP2;P2;SDS_P1;SDS_P2;PMS_P1;PMS_P2;Temp;Humidity;BMP_temperature;BMP_pressure;BME280_temperature;BME280_humidity;BME280_pressure;Samples;Min_cycle;Max_cycle;Signal;HPM_P1;HPM_P2
2023/02/04 00:00:38;;;;;;;9.10;0.60;;;;;;;-146.25;81.03;52443.22;2097214;28;20025;-72
2023/02/04 00:01:40;;;;;;;12.00;0.98;;;;;;;-146.25;81.47;52398.59;2096647;28;41671;-72
2023/02/04 00:02:42;;;;;;;10.55;1.13;;;;;;;-146.25;82.24;52433.06;2096440;28;41286;-72
2023/02/04 00:03:44;;;;;;;10.57;0.65;;;;;;;-146.25;81.75;52435.09;2087418;28;39886;-73
2023/02/04 00:04:45;;;;;;;11.63;1.08;;;;;;;-146.25;82.01;52412.81;2087924;28;41187;-73
2023/02/04 00:05:47;;;;;;;11.82;0.68;;;;;;;-146.25;82.90;52437.13;2096896;28;20810;-71
2023/02/04 00:06:49;;;;;;;7.47;0.60;;;;;;;-146.25;82.57;52396.59;2087316;28;40333;-73
2023/02/04 00:07:50;;;;;;;9.63;0.60;;;;;;;-146.25;83.03;52414.84;2087739;28;41566;-71
2023/02/04 00:08:52;;;;;;;9.82;0.70;;;;;;;-146.25;83.08;52445.25;2095874;28;37397;-72
2023/02/04 00:09:54;;;;;;;11.82;0.50;;;;;;;-146.25;82.85;52418.88;2095749;28;38266;-72
2023/02/04 00:10:56;;;;;;;12.95;0.95;;;;;;;-146.25;83.23;52412.81;2103079;28;20881;-72
2023/02/04 00:11:57;;;;;;;8.70;0.43;;;;;;;-146.25;83.78;52457.41;2104734;28;42805;-72
2023/02/04 00:12:59;;;;;;;13.73;1.20;;;;;;;-146.25;82.89;52388.47;2105477;28;20037;-72
2023/02/04 00:14:01;;;;;;;10.23;0.68;;;;;;;-146.25;83.61;52437.13;2104664;28;40976;-72
2023/02/04 00:15:04;;;;;;;16.55;0.80;;;;;;;-146.25;83.41;52400.63;2105062;28;37265;-72
2023/02/04 00:16:06;;;;;;;10.20;0.57;;;;;;;-146.25;83.87;52449.31;2097187;28;20068;-72
2023/02/04 00:17:10;;;;;;;7.90;0.50;;;;;;;-146.25;83.76;52437.13;2096235;28;41533;-72
2023/02/04 00:18:12;;;;;;;8.15;0.80;;;;;;;-146.25;84.11;52443.22;2104829;28;38024;-72
2023/02/04 00:19:13;;;;;;;11.20;0.60;;;;;;;-146.25;84.27;52431.06;2104995;28;38619;-73
2023/02/04 00:20:15;;;;;;;9.30;0.60;;;;;;;-146.25;84.70;52424.97;2104772;28;43076;-72
2023/02/04 00:21:17;;;;;;;12.02;1.05;;;;;;;-146.25;85.57;52424.97;2105544;28;20955;-72
2023/02/04 00:22:21;;;;;;;10.13;0.70;;;;;;;-146.25;84.92;52414.84;2104903;28;39676;-73
2023/02/04 00:23:23;;;;;;;14.18;0.85;;;;;;;-146.25;84.96;52416.84;2105109;28;38064;-73
2023/02/04 00:24:25;;;;;;;11.43;0.88;;;;;;;-146.25;85.14;52418.88;2104435;28;42614;-74
2023/02/04 00:25:28;;;;;;;8.63;0.55;;;;;;;-146.25;86.05;52400.63;2105238;28;26626;-73
2023/02/04 00:26:30;;;;;;;12.90;0.88;;;;;;;-146.25;85.74;52429.03;2104633;28;39475;-72
2023/02/04 00:27:32;;;;;;;14.13;0.80;;;;;;;-146.25;86.15;52429.03;2104230;28;20949;-72
2023/02/04 00:28:34;;;;;;;10.98;0.80;;;;;;;-146.25;86.10;52418.88;2096751;28;20041;-72
2023/02/04 00:29:36;;;;;;;8.55;0.60;;;;;;;-146.25;86.08;52443.22;2096265;28;33853;-72
2023/02/04 00:30:37;;;;;;;13.77;1.00;;;;;;;-146.25;86.60;52465.53;2104803;28;39623;-72
2023/02/04 00:31:39;;;;;;;13.70;1.48;;;;;;;-146.25;86.54;52441.19;2096133;28;23762;-73
2023/02/04 00:32:41;;;;;;;14.35;1.40;;;;;;;-146.25;86.32;52429.03;2088010;28;37345;-71
2023/02/04 00:33:42;;;;;;;6.88;0.50;;;;;;;-146.25;85.99;52422.94;2088228;28;26839;-72
2023/02/04 00:34:44;;;;;;;10.52;0.88;;;;;;;-146.25;85.90;52435.09;2087165;28;32733;-72
2023/02/04 00:35:46;;;;;;;13.82;0.98;;;;;;;-146.25;86.03;52473.63;2096286;28;29344;-72
2023/02/04 00:36:48;;;;;;;16.15;0.93;;;;;;;-146.25;86.47;52457.41;2105036;28;34686;-72
2023/02/04 00:37:50;;;;;;;11.52;0.70;;;;;;;-146.25;86.49;52441.19;2105994;28;20179;-72
2023/02/04 00:38:52;;;;;;;9.68;0.43;;;;;;;-146.25;86.05;52431.06;2105424;28;20167;-72
2023/02/04 00:39:54;;;;;;;9.13;0.43;;;;;;;-146.25;85.79;52424.97;2105025;28;24459;-72
2023/02/04 00:40:55;;;;;;;8.45;0.50;;;;;;;-146.25;86.21;52443.22;2104017;28;37225;-72
2023/02/04 00:41:57;;;;;;;8.90;0.82;;;;;;;-146.25;86.28;52412.81;2095805;28;32127;-71
2023/02/04 00:42:59;;;;;;;7.30;0.50;;;;;;;-146.25;85.92;52410.78;2095818;28;22613;-73
2023/02/04 00:44:00;;;;;;;3.58;0.32;;;;;;;-146.25;85.59;52420.91;2105156;28;34988;-72
2023/02/04 00:45:02;;;;;;;10.27;0.57;;;;;;;-146.25;85.44;52433.06;2087759;28;22012;-72
2023/02/04 00:46:04;;;;;;;14.88;0.85;;;;;;;-146.25;84.88;52408.75;2079182;28;41236;-72
2023/02/04 00:47:08;;;;;;;6.82;0.38;;;;;;;-146.25;84.97;52453.34;2097162;28;20037;-73
2023/02/04 00:48:10;;;;;;;4.75;0.60;;;;;;;-146.25;85.28;52408.75;2104883;28;37671;-74
2023/02/04 00:49:13;;;;;;;7.28;0.68;;;;;;;-146.25;85.54;52412.81;2096397;28;20080;-72
2023/02/04 00:50:15;;;;;;;10.20;0.63;;;;;;;-146.25;85.67;52410.78;2087902;28;33432;-72
2023/02/04 00:51:19;;;;;;;7.25;0.73;;;;;;;-146.25;86.13;52416.84;2096436;28;20254;-72
2023/02/04 00:52:21;;;;;;;9.75;0.80;;;;;;;-146.25;85.78;52453.34;2088069;28;34105;-73
2023/02/04 00:53:23;;;;;;;5.75;0.40;;;;;;;-146.25;85.56;52453.34;2080117;28;20049;-72
2023/02/04 00:54:27;;;;;;;9.02;0.68;;;;;;;-146.25;85.82;52424.97;2087606;28;37849;-72
2023/02/04 00:55:28;;;;;;;7.90;0.40;;;;;;;-146.25;85.97;52449.31;2104377;28;23311;-72
2023/02/04 00:56:30;;;;;;;10.35;0.60;;;;;;;-146.25;86.16;52433.06;2105223;28;20040;-72
2023/02/04 00:57:33;;;;;;;10.48;0.30;;;;;;;-146.25;85.65;52427.00;2105360;28;20154;-74
2023/02/04 00:58:35;;;;;;;8.30;0.70;;;;;;;-146.25;85.53;52420.91;2104267;28;39703;-73
2023/02/04 00:59:36;;;;;;;10.10;0.60;;;;;;;-146.25;85.46;52427.00;2105483;28;20048;-72
2023/02/04 01:00:38;;;;;;;8.32;0.55;;;;;;;-146.25;84.97;52392.53;2096314;28;34125;-72
2023/02/04 01:01:40;;;;;;;7.63;0.40;;;;;;;-146.25;85.34;52394.56;2087772;28;20100;-72
2023/02/04 01:02:44;;;;;;;4.90;0.47;;;;;;;-146.25;85.44;52412.81;2095949;28;27195;-72
2023/02/04 01:03:47;;;;;;;7.00;0.63;;;;;;;-146.25;85.57;52473.63;2105735;28;20036;-71
2023/02/04 01:04:48;;;;;;;8.32;0.45;;;;;;;-146.25;85.28;52424.97;2105390;28;20041;-72
2023/02/04 01:05:51;;;;;;;10.02;0.40;;;;;;;-146.25;85.25;52402.66;2105328;28;20035;-78
2023/02/04 01:06:53;;;;;;;7.47;0.47;;;;;;;-146.25;85.41;52418.88;2096152;28;39529;-72
2023/02/04 01:07:54;;;;;;;5.07;0.40;;;;;;;-146.25;85.29;52447.28;2095919;28;31464;-72
2023/02/04 01:08:56;;;;;;;11.32;0.50;;;;;;;-146.25;85.70;52408.75;2095503;28;31482;-73
2023/02/04 01:10:00;;;;;;;8.57;0.82;;;;;;;-146.25;85.74;52429.03;2086900;28;32050;-73
2023/02/04 01:11:02;;;;;;;6.47;0.32;;;;;;;-146.25;85.49;52412.81;2087813;28;20111;-73
2023/02/04 01:12:04;;;;;;;12.40;0.60;;;;;;;-146.25;85.76;52378.34;2095797;28;38517;-71
2023/02/04 01:13:08;;;;;;;8.10;0.50;;;;;;;-146.25;86.17;52429.03;2086805;28;21113;-73
2023/02/04 01:14:10;;;;;;;11.70;0.60;;;;;;;-146.25;86.46;52412.81;2087113;28;28938;-73
2023/02/04 01:15:13;;;;;;;8.52;0.60;;;;;;;-146.25;86.48;52437.13;2087305;28;20088;-72
2023/02/04 01:16:17;;;;;;;10.20;0.68;;;;;;;-146.25;86.41;52437.13;2086528;28;38045;-71
2023/02/04 01:17:20;;;;;;;8.43;0.73;;;;;;;-146.25;86.21;52451.31;2087233;28;20038;-72
2023/02/04 01:18:23;;;;;;;10.73;1.13;;;;;;;-146.25;86.52;52418.88;2087730;28;20041;-71
2023/02/04 01:19:25;;;;;;;6.07;0.30;;;;;;;-146.25;86.69;52441.19;2096012;28;30648;-72
2023/02/04 01:20:28;;;;;;;13.57;1.00;;;;;;;-146.25;86.72;52424.97;2087272;28;20923;-71
2023/02/04 01:21:30;;;;;;;6.03;0.43;;;;;;;-146.25;86.90;52433.06;2086853;28;32680;-71
2023/02/04 01:22:32;;;;;;;5.05;0.50;;;;;;;-146.25;86.52;52435.09;2096883;28;20037;-71
2023/02/04 01:23:33;;;;;;;5.55;0.40;;;;;;;-146.25;86.62;52457.41;2095818;28;30536;-74
2023/02/04 01:24:37;;;;;;;8.25;0.30;;;;;;;-146.25;86.65;52414.84;2095708;28;35010;-71
2023/02/04 01:25:58;;;;;;;6.75;0.40;;;;;;;-146.25;86.98;52400.63;2096086;28;20076;-72
2023/02/04 01:27:00;;;;;;;9.73;0.55;;;;;;;-146.25;86.80;52398.59;2086678;28;20049;-73
2023/02/04 01:28:04;;;;;;;6.45;0.60;;;;;;;-146.25;86.74;52420.91;2092334;28;37246;-71
2023/02/04 01:29:06;;;;;;;6.53;0.40;;;;;;;-146.25;86.96;52422.94;2104201;28;34111;-72
2023/02/04 01:30:08;;;;;;;7.13;0.40;;;;;;;-146.25;86.64;52467.56;2104481;28;37671;-73
2023/02/04 01:31:11;;;;;;;7.75;0.65;;;;;;;-146.25;86.59;52408.75;2104442;28;21192;-73
2023/02/04 01:32:14;;;;;;;10.35;0.60;;;;;;;-146.25;86.52;52416.84;2104681;28;20895;-72
2023/02/04 01:33:16;;;;;;;8.00;0.60;;;;;;;-146.25;86.61;52400.63;2104442;28;27459;-72
2023/02/04 01:34:20;;;;;;;9.10;0.70;;;;;;;-146.25;86.72;52416.84;2086379;28;37812;-73
2023/02/04 01:35:22;;;;;;;6.13;0.38;;;;;;;-146.25;86.58;52416.84;2086696;28;35043;-72
2023/02/04 01:36:23;;;;;;;10.70;0.70;;;;;;;-146.25;86.71;52443.22;2104365;28;30588;-73
2023/02/04 01:37:25;;;;;;;6.60;0.50;;;;;;;-146.25;86.65;52402.66;2094720;28;32244;-73
2023/02/04 01:38:27;;;;;;;5.63;0.40;;;;;;;-146.25;86.50;52422.94;2096179;28;20033;-73
2023/02/04 01:39:29;;;;;;;8.45;0.77;;;;;;;-146.25;86.72;52435.09;2104413;28;20033;-71
2023/02/04 01:40:30;;;;;;;6.20;0.40;;;;;;;-146.25;86.60;52424.97;2104421;28;28154;-72
2023/02/04 01:41:32;;;;;;;6.43;0.28;;;;;;;-146.25;86.92;52483.78;2095015;28;24263;-72
2023/02/04 01:42:34;;;;;;;6.65;0.40;;;;;;;-146.25;87.11;52465.53;2094094;28;20044;-72
2023/02/04 01:43:36;;;;;;;7.68;0.63;;;;;;;-146.25;86.96;52439.16;2094801;28;36742;-73
2023/02/04 01:44:38;;;;;;;8.50;0.55;;;;;;;-146.25;86.95;52439.16;2087044;28;35516;-72
2023/02/04 01:45:40;;;;;;;10.07;0.70;;;;;;;-146.25;87.27;52445.25;2094550;28;35530;-72
2023/02/04 01:46:42;;;;;;;8.15;0.82;;;;;;;-146.25;86.99;52435.09;2095133;28;30791;-71
2023/02/04 01:47:46;;;;;;;5.57;0.50;;;;;;;-146.25;87.12;52455.38;2097852;28;20049;-72
2023/02/04 01:48:48;;;;;;;6.65;0.30;;;;;;;-146.25;87.14;52455.38;2096570;28;33718;-72
2023/02/04 01:49:53;;;;;;;7.80;0.50;;;;;;;-146.25;86.78;52433.06;2097058;28;30207;-71
2023/02/04 01:51:07;;;;;;;8.73;0.65;;;;;;;-146.25;86.60;52437.13;2096675;28;29471;-72
2023/02/04 01:52:11;;;;;;;10.85;1.15;;;;;;;-146.25;86.52;52461.47;2099387;28;26027;-72
2023/02/04 01:53:20;;;;;;;7.47;0.30;;;;;;;-146.25;86.64;52420.91;2096612;28;23474;-75
2023/02/04 01:54:22;;;;;;;5.97;0.30;;;;;;;-146.25;86.78;52408.75;2098719;28;30833;-70
2023/02/04 01:55:28;;;;;;;7.57;1.00;;;;;;;-146.25;86.78;52437.13;2105460;28;35106;-71
2023/02/04 01:56:30;;;;;;;2.75;0.40;;;;;;;-146.25;86.81;52418.88;2105262;28;34512;-72
2023/02/04 01:57:35;;;;;;;5.50;0.32;;;;;;;-146.25;87.00;52463.50;2096306;28;28073;-71
2023/02/04 01:58:37;;;;;;;8.15;0.65;;;;;;;-146.25;87.29;52408.75;2096945;28;20041;-73
2023/02/04 01:59:42;;;;;;;7.28;0.40;;;;;;;-146.25;87.11;52424.97;2088838;28;20049;-73
2023/02/04 02:00:46;;;;;;;6.05;0.40;;;;;;;-146.25;87.37;52445.25;2096596;28;35082;-70
2023/02/04 02:01:51;;;;;;;6.82;0.30;;;;;;;-146.25;87.46;52429.03;2091161;28;31157;-73
2023/02/04 02:02:53;;;;;;;4.97;0.50;;;;;;;-146.25;87.73;52420.91;2080669;28;26909;-73
2023/02/04 02:03:55;;;;;;;3.70;0.30;;;;;;;-146.25;87.67;52433.06;2081085;28;20078;-73
2023/02/04 02:04:57;;;;;;;5.15;0.40;;;;;;;-146.25;88.09;52457.41;2089006;28;24324;-72
2023/02/04 02:05:59;;;;;;;6.18;0.40;;;;;;;-146.25;87.96;52402.66;2097923;28;20038;-73
2023/02/04 02:07:05;;;;;;;5.93;0.40;;;;;;;-146.25;88.40;52392.53;2088256;28;26453;-74
2023/02/04 02:08:07;;;;;;;6.53;0.50;;;;;;;-146.25;88.59;52410.78;2081417;28;22106;-73
2023/02/04 02:09:12;;;;;;;8.27;1.10;;;;;;;-146.25;88.78;52402.66;2081530;28;20153;-72
2023/02/04 02:10:16;;;;;;;10.75;0.68;;;;;;;-146.25;88.66;52441.19;2072356;28;27887;-72
2023/02/04 02:11:19;;;;;;;9.35;0.50;;;;;;;-146.25;88.67;52433.06;2064438;28;28446;-72
2023/02/04 02:12:21;;;;;;;7.43;0.60;;;;;;;-146.25;88.79;52420.91;2088840;28;26684;-71
2023/02/04 02:13:22;;;;;;;7.60;0.70;;;;;;;-146.25;89.43;52437.13;2103909;28;37422;-72
2023/02/04 02:14:25;;;;;;;13.43;0.70;;;;;;;-146.25;89.23;52406.72;2088289;28;20122;-71
2023/02/04 02:15:27;;;;;;;6.93;0.40;;;;;;;-146.25;89.56;52408.75;2087986;28;36194;-73
2023/02/04 02:16:29;;;;;;;12.05;0.90;;;;;;;-146.25;89.46;52455.38;2096626;28;29578;-73
2023/02/04 02:17:32;;;;;;;8.65;0.55;;;;;;;-146.25;89.17;52396.59;2104418;28;33076;-74
2023/02/04 02:18:33;;;;;;;7.18;0.47;;;;;;;-146.25;88.83;52424.97;2097059;28;20897;-73
2023/02/04 02:19:37;;;;;;;8.65;0.55;;;;;;;-146.25;89.29;52418.88;2097164;28;27915;-72
2023/02/04 02:20:41;;;;;;;5.35;0.55;;;;;;;-146.25;89.37;52418.88;2097323;28;26960;-72
2023/02/04 02:22:04;;;;;;;11.45;0.52;;;;;;;-146.25;89.26;52412.81;2096997;28;27360;-72
2023/02/04 02:23:50;;;;;;;8.82;0.40;;;;;;;-146.25;89.04;52412.81;2087843;28;38919;-71
2023/02/04 02:24:52;;;;;;;9.52;0.30;;;;;;;-146.25;89.24;52431.06;2096827;28;36015;-72
2023/02/04 02:25:54;;;;;;;11.82;0.40;;;;;;;-146.25;88.99;52433.06;2097010;28;34815;-72
2023/02/04 02:27:03;;;;;;;9.70;0.60;;;;;;;-146.25;89.38;52416.84;2088422;28;20918;-72
2023/02/04 02:28:10;;;;;;;7.30;0.43;;;;;;;-146.25;89.16;52420.91;2088865;28;26642;-73
2023/02/04 02:29:13;;;;;;;7.63;0.57;;;;;;;-146.25;89.25;52431.06;2088237;28;20068;-73
2023/02/04 02:30:16;;;;;;;8.80;0.75;;;;;;;-146.25;89.22;52427.00;2080566;28;34148;-72
2023/02/04 02:31:21;;;;;;;9.68;0.30;;;;;;;-146.25;89.53;52427.00;2088548;28;38280;-72
2023/02/04 02:32:23;;;;;;;8.40;0.35;;;;;;;-146.25;89.20;52433.06;2080110;28;20057;-71
2023/02/04 02:33:26;;;;;;;7.57;0.63;;;;;;;-146.25;89.43;52406.72;2073367;28;20132;-73
2023/02/04 02:34:29;;;;;;;5.97;0.45;;;;;;;-146.25;89.58;52445.25;2079818;28;33515;-72
2023/02/04 02:35:32;;;;;;;8.90;0.35;;;;;;;-146.25;89.47;52461.47;2088406;28;35374;-71
2023/02/04 02:36:33;;;;;;;8.00;0.90;;;;;;;-146.25;89.51;52424.97;2096424;28;33678;-72
2023/02/04 02:37:35;;;;;;;4.15;0.38;;;;;;;-146.25;89.58;52394.56;2097692;28;20052;-72
2023/02/04 02:38:38;;;;;;;5.40;0.40;;;;;;;-146.25;89.86;52412.81;2096905;28;32476;-72
2023/02/04 02:39:44;;;;;;;10.38;0.50;;;;;;;-146.25;89.97;52437.13;2087628;28;35325;-72
2023/02/04 02:40:48;;;;;;;12.70;0.63;;;;;;;-146.25;90.33;52461.47;2089780;28;20045;-72
2023/02/04 02:41:50;;;;;;;7.78;0.85;;;;;;;-146.25;90.26;52406.72;2087502;28;36986;-71
2023/02/04 02:42:52;;;;;;;4.90;0.40;;;;;;;-146.25;90.43;52445.25;2087634;28;31868;-72
2023/02/04 02:43:54;;;;;;;7.70;0.50;;;;;;;-146.25;90.56;52433.06;2096837;28;20045;-71
2023/02/04 02:44:57;;;;;;;7.53;0.40;;;;;;;-146.25;90.91;52429.03;2095827;28;35630;-72
2023/02/04 02:46:00;;;;;;;9.00;0.40;;;;;;;-146.25;90.84;52429.03;2096186;28;35604;-72
2023/02/04 02:47:02;;;;;;;9.05;0.60;;;;;;;-146.25;90.71;52422.94;2087941;28;32901;-72
2023/02/04 02:48:04;;;;;;;10.27;0.43;;;;;;;-146.25;91.06;52424.97;2088311;28;33721;-72
2023/02/04 02:49:10;;;;;;;12.68;0.75;;;;;;;-146.25;90.97;52437.13;2087557;28;34481;-71
2023/02/04 02:50:18;;;;;;;6.72;0.55;;;;;;;-146.25;91.16;52435.09;2089001;28;32762;-71
2023/02/04 02:51:22;;;;;;;8.45;0.70;;;;;;;-146.25;91.86;52439.16;2096097;28;36109;-71
2023/02/04 02:52:26;;;;;;;3.75;0.40;;;;;;;-146.25;91.81;52433.06;2097883;28;20860;-75
2023/02/04 02:53:28;;;;;;;10.13;0.75;;;;;;;-146.25;91.89;52445.25;2080421;28;22878;-71
2023/02/04 02:54:32;;;;;;;7.88;0.40;;;;;;;-146.25;91.20;52394.56;2080143;28;20165;-72
2023/02/04 02:55:38;;;;;;;7.47;0.70;;;;;;;-146.25;91.56;52412.81;2081112;28;20038;-73
2023/02/04 02:56:39;;;;;;;6.88;0.57;;;;;;;-146.25;91.78;52441.19;2080037;28;20833;-73
2023/02/04 02:57:41;;;;;;;5.28;0.57;;;;;;;-146.25;91.89;52429.03;2080178;28;20983;-72
2023/02/04 02:58:43;;;;;;;7.63;0.40;;;;;;;-146.25;91.76;52418.88;2088526;28;20765;-72
2023/02/04 02:59:45;;;;;;;9.60;0.73;;;;;;;-146.25;92.07;52437.13;2079816;28;20745;-71
2023/02/04 03:00:50;;;;;;;14.10;0.90;;;;;;;-146.25;91.91;52441.19;2088470;28;28241;-73
2023/02/04 03:02:01;;;;;;;6.05;0.43;;;;;;;-146.25;92.64;52465.53;2088094;28;20068;-72
2023/02/04 03:03:12;;;;;;;7.65;0.40;;;;;;;-146.25;91.98;52384.41;2073236;28;20058;-72
2023/02/04 03:04:14;;;;;;;4.57;0.65;;;;;;;-146.25;92.12;52433.06;2083342;28;32462;-73
2023/02/04 03:05:16;;;;;;;9.32;0.40;;;;;;;-146.25;92.62;52441.19;2087354;28;26769;-72
2023/02/04 03:06:29;;;;;;;9.50;0.40;;;;;;;-146.25;92.24;52424.97;2080096;28;20046;-72
2023/02/04 03:07:31;;;;;;;14.35;0.70;;;;;;;-146.25;92.88;52441.19;2087883;28;20815;-73
2023/02/04 03:08:33;;;;;;;6.90;0.57;;;;;;;-146.25;92.48;52424.97;2087772;28;20167;-73
2023/02/04 03:09:35;;;;;;;7.10;0.90;;;;;;;-146.25;92.49;52412.81;2079418;28;30950;-73
2023/02/04 03:10:37;;;;;;;13.25;0.73;;;;;;;-146.25;92.98;52422.94;2087882;28;38941;-72
2023/02/04 03:11:42;;;;;;;12.18;0.70;;;;;;;-146.25;92.54;52435.09;2080441;28;20045;-72
2023/02/04 03:12:46;;;;;;;5.72;0.43;;;;;;;-146.25;92.51;52457.41;2079577;28;32987;-71
2023/02/04 03:13:52;;;;;;;10.07;0.77;;;;;;;-146.25;92.76;52473.63;2079812;28;36348;-71
2023/02/04 03:14:55;;;;;;;11.90;1.02;;;;;;;-146.25;92.82;52429.03;2090703;28;20126;-71
2023/02/04 03:15:57;;;;;;;12.43;0.63;;;;;;;-146.25;93.00;52412.81;2096789;28;30668;-71
2023/02/04 03:17:01;;;;;;;6.00;0.68;;;;;;;-146.25;93.13;52439.16;2097695;28;20048;-71
2023/02/04 03:18:03;;;;;;;9.30;0.50;;;;;;;-146.25;93.05;52447.28;2087781;28;35535;-71
2023/02/04 03:19:07;;;;;;;11.00;0.60;;;;;;;-146.25;92.76;52408.75;2088736;28;32401;-71
2023/02/04 03:20:10;;;;;;;7.18;0.30;;;;;;;-146.25;93.33;52437.13;2088398;28;28207;-71
2023/02/04 03:21:11;;;;;;;8.32;0.82;;;;;;;-146.25;93.12;52447.28;2081079;28;20038;-71
2023/02/04 03:22:13;;;;;;;11.48;0.70;;;;;;;-146.25;92.75;52408.75;2088509;28;24211;-71
2023/02/04 03:23:16;;;;;;;10.52;0.70;;;;;;;-146.25;92.79;52427.00;2096550;28;20107;-71
2023/02/04 03:24:21;;;;;;;9.02;0.80;;;;;;;-146.25;93.36;52449.31;2088572;28;20046;-72
2023/02/04 03:25:27;;;;;;;7.07;0.55;;;;;;;-146.25;93.27;52461.47;2089466;28;20049;-71
2023/02/04 03:26:31;;;;;;;9.85;0.40;;;;;;;-146.25;93.33;52437.13;2089456;28;20898;-71
2023/02/04 03:27:32;;;;;;;8.25;0.70;;;;;;;-146.25;93.36;52424.97;2096324;28;38361;-71
2023/02/04 03:28:39;;;;;;;11.50;0.60;;;;;;;-146.25;93.44;52465.53;2104924;28;20157;-71
2023/02/04 03:29:45;;;;;;;7.20;0.40;;;;;;;-146.25;93.16;52416.84;2095976;28;20037;-71
2023/02/04 03:30:54;;;;;;;9.75;0.60;;;;;;;-146.25;93.87;52435.09;2088879;28;41130;-71
2023/02/04 03:31:58;;;;;;;12.02;0.60;;;;;;;-146.25;93.46;52439.16;2097054;28;38949;-71
2023/02/04 03:33:00;;;;;;;6.43;0.40;;;;;;;-146.25;93.64;52420.91;2104810;28;37097;-71
2023/02/04 03:34:03;;;;;;;6.68;0.40;;;;;;;-146.25;93.42;52433.06;2106191;28;20043;-71
2023/02/04 03:35:05;;;;;;;5.32;0.50;;;;;;;-146.25;93.77;52437.13;2104954;28;41870;-71
2023/02/04 03:36:08;;;;;;;4.63;0.43;;;;;;;-146.25;94.60;52439.16;2105610;28;34710;-71
2023/02/04 03:37:09;;;;;;;8.10;0.40;;;;;;;-146.25;93.97;52427.00;2104921;28;37396;-72
2023/02/04 03:38:11;;;;;;;8.85;0.40;;;;;;;-146.25;94.31;52420.91;2105428;28;41596;-71
2023/02/04 03:39:13;;;;;;;4.68;0.30;;;;;;;-146.25;94.60;52431.06;2097355;28;20044;-71
2023/02/04 03:40:15;;;;;;;7.50;0.30;;;;;;;-146.25;94.59;52461.47;2095205;28;40872;-71
2023/02/04 03:41:17;;;;;;;5.72;0.40;;;;;;;-146.25;94.03;52441.19;2095462;28;39574;-71
2023/02/04 03:42:19;;;;;;;5.40;0.30;;;;;;;-146.25;94.10;52437.13;2096687;28;21095;-71
2023/02/04 03:43:21;;;;;;;10.00;0.70;;;;;;;-146.25;95.13;52441.19;2104706;28;39816;-71
2023/02/04 03:44:25;;;;;;;8.35;0.47;;;;;;;-146.25;94.98;52465.53;2105107;28;36531;-71
2023/02/04 03:45:29;;;;;;;9.93;0.75;;;;;;;-146.25;96.01;52451.31;2105898;28;20944;-71
2023/02/04 03:46:44;;;;;;;11.93;0.50;;;;;;;-146.25;96.06;52412.81;2096080;28;43562;-71
2023/02/04 03:47:46;;;;;;;8.23;0.60;;;;;;;-146.25;95.93;52431.06;2099146;28;21090;-71
2023/02/04 03:48:47;;;;;;;5.20;0.57;;;;;;;-146.25;95.40;52408.75;2105125;28;42860;-71
2023/02/04 03:49:49;;;;;;;10.52;0.65;;;;;;;-146.25;95.87;52422.94;2105184;28;34217;-71
2023/02/04 03:50:51;;;;;;;8.23;0.55;;;;;;;-146.25;95.68;52418.88;2105495;28;26860;-71
2023/02/04 03:51:52;;;;;;;6.95;0.60;;;;;;;-146.25;95.46;52422.94;2105172;28;39159;-72
2023/02/04 03:52:54;;;;;;;7.15;0.47;;;;;;;-146.25;95.21;52416.84;2105687;28;20295;-72
2023/02/04 03:53:56;;;;;;;6.82;0.80;;;;;;;-146.25;95.48;52473.63;2104973;28;39556;-71
2023/02/04 03:55:00;;;;;;;5.55;0.47;;;;;;;-146.25;96.15;52445.25;2105350;28;36961;-72
2023/02/04 03:56:01;;;;;;;7.82;0.52;;;;;;;-146.25;95.89;52445.25;2104573;28;40322;-72
2023/02/04 03:57:03;;;;;;;8.48;0.40;;;;;;;-146.25;95.38;52431.06;2105182;28;43151;-71
2023/02/04 03:58:05;;;;;;;11.02;0.93;;;;;;;-146.25;95.93;52431.06;2104949;28;41709;-71
2023/02/04 03:59:06;;;;;;;9.30;0.63;;;;;;;-146.25;95.69;52433.06;2105172;28;39277;-71
2023/02/04 04:00:12;;;;;;;5.20;0.52;;;;;;;-146.25;95.47;52398.59;2105484;28;20037;-71
2023/02/04 04:01:14;;;;;;;5.13;0.30;;;;;;;-146.25;95.69;52412.81;2106315;28;20037;-71
2023/02/04 04:02:16;;;;;;;8.07;0.63;;;;;;;-146.25;96.25;52469.56;2104980;28;43268;-71
2023/02/04 04:03:17;;;;;;;7.78;0.55;;;;;;;-146.25;96.44;52435.09;2105139;28;34441;-71
2023/02/04 04:04:19;;;;;;;7.75;0.57;;;;;;;-146.25;96.50;52402.66;2104788;28;40735;-71
2023/02/04 04:05:21;;;;;;;8.82;0.50;;;;;;;-146.25;97.12;52437.13;2104828;28;42623;-71
2023/02/04 04:06:22;;;;;;;11.27;0.93;;;;;;;-146.25;96.30;52424.97;2104994;28;42023;-71
2023/02/04 04:07:24;;;;;;;7.05;0.55;;;;;;;-146.25;96.72;52424.97;2105709;28;22627;-71
2023/02/04 04:08:26;;;;;;;5.53;0.70;;;;;;;-146.25;97.01;52443.22;2104477;28;36289;-71
2023/02/04 04:09:28;;;;;;;7.50;0.50;;;;;;;-146.25;97.02;52441.19;2105111;28;20087;-71
2023/02/04 04:10:30;;;;;;;10.07;0.70;;;;;;;-146.25;97.25;52449.31;2095685;28;39213;-71
2023/02/04 04:11:32;;;;;;;6.03;0.73;;;;;;;-146.25;97.32;52467.56;2096150;28;39283;-71
2023/02/04 04:12:33;;;;;;;8.45;0.60;;;;;;;-146.25;97.38;52412.81;2096604;28;20724;-71
2023/02/04 04:13:35;;;;;;;9.95;0.95;;;;;;;-146.25;97.45;52433.06;2095763;28;38627;-71
2023/02/04 04:14:37;;;;;;;7.63;0.70;;;;;;;-146.25;97.71;52445.25;2104948;28;39238;-71
2023/02/04 04:15:40;;;;;;;10.00;0.70;;;;;;;-146.25;97.40;52416.84;2105746;28;20151;-71
2023/02/04 04:16:42;;;;;;;6.85;0.90;;;;;;;-146.25;97.65;52394.56;2105126;28;38226;-71
2023/02/04 04:17:44;;;;;;;8.30;0.55;;;;;;;-146.25;97.18;52443.22;2105748;28;20875;-71
2023/02/04 04:18:48;;;;;;;9.75;0.80;;;;;;;-146.25;97.58;52467.56;2095611;28;40849;-71
2023/02/04 04:19:49;;;;;;;9.27;0.50;;;;;;;-146.25;97.49;52475.66;2096629;28;34705;-71
2023/02/04 04:20:51;;;;;;;9.25;0.60;;;;;;;-146.25;97.49;52441.19;2105727;28;20952;-71
2023/02/04 04:21:55;;;;;;;10.27;0.73;;;;;;;-146.25;96.82;52439.16;2104849;28;42765;-71
2023/02/04 04:22:57;;;;;;;12.88;1.00;;;;;;;-146.25;96.85;52396.59;2096408;28;20044;-71
2023/02/04 04:23:58;;;;;;;14.88;0.73;;;;;;;-146.25;97.24;52435.09;2088124;28;34544;-71
2023/02/04 04:25:00;;;;;;;7.07;0.57;;;;;;;-146.25;97.45;52422.94;2096226;28;38191;-71
2023/02/04 04:26:02;;;;;;;8.88;0.50;;;;;;;-146.25;97.11;52435.09;2104907;28;37982;-71
2023/02/04 04:27:03;;;;;;;5.75;0.60;;;;;;;-146.25;96.89;52449.31;2104065;28;36281;-71
2023/02/04 04:28:05;;;;;;;7.82;0.50;;;;;;;-146.25;97.33;52451.31;2105561;28;20052;-71
2023/02/04 04:29:07;;;;;;;10.65;0.80;;;;;;;-146.25;96.71;52420.91;2087645;28;39328;-71
2023/02/04 04:30:11;;;;;;;9.15;0.43;;;;;;;-146.25;96.91;52453.34;2088847;28;20112;-71
2023/02/04 04:31:15;;;;;;;8.80;0.68;;;;;;;-146.25;96.90;52457.41;2095727;28;38176;-71
2023/02/04 04:32:17;;;;;;;8.10;0.60;;;;;;;-146.25;97.15;52412.81;2096464;28;40412;-71
2023/02/04 04:33:18;;;;;;;12.55;0.52;;;;;;;-146.25;97.30;52416.84;2104401;28;20041;-71
2023/02/04 04:34:20;;;;;;;5.68;0.65;;;;;;;-146.25;97.30;52429.03;2105481;28;24612;-71
2023/02/04 04:35:22;;;;;;;13.05;0.77;;;;;;;-146.25;97.07;52453.34;2095747;28;41992;-71
2023/02/04 04:36:23;;;;;;;15.32;1.15;;;;;;;-146.25;97.40;52437.13;2095926;28;39810;-71
2023/02/04 04:37:25;;;;;;;6.97;0.80;;;;;;;-146.25;97.29;52443.22;2095517;28;35190;-71
2023/02/04 04:38:27;;;;;;;9.18;1.10;;;;;;;-146.25;97.03;52437.13;2096084;28;41493;-70
2023/02/04 04:39:28;;;;;;;5.63;0.60;;;;;;;-146.25;96.72;52422.94;2105503;28;22187;-71
2023/02/04 04:40:30;;;;;;;7.13;0.88;;;;;;;-146.25;96.66;52414.84;2094747;28;38689;-71
2023/02/04 04:41:32;;;;;;;8.82;1.00;;;;;;;-146.25;96.87;52429.03;2095704;28;42040;-71
2023/02/04 04:42:34;;;;;;;14.95;1.08;;;;;;;-146.25;97.03;52465.53;2104974;28;37897;-71
2023/02/04 04:43:35;;;;;;;11.75;0.98;;;;;;;-146.25;96.43;52457.41;2104479;28;40253;-71
2023/02/04 04:44:37;;;;;;;14.98;1.20;;;;;;;-146.25;96.37;52473.63;2104940;28;39443;-71
2023/02/04 04:45:39;;;;;;;10.27;1.00;;;;;;;-146.25;96.32;52453.34;2104979;28;39443;-71
2023/02/04 04:46:43;;;;;;;8.50;0.80;;;;;;;-146.25;96.54;52398.59;2096493;28;20041;-71
2023/02/04 04:47:47;;;;;;;8.57;0.88;;;;;;;-146.25;96.88;52441.19;2096974;28;20048;-71
2023/02/04 04:48:49;;;;;;;8.82;0.90;;;;;;;-146.25;96.43;52467.56;2095671;28;41156;-71